sensor_id;sensor_type;location;lat;lon;timestamp;P1;durP1;ratioP1;P2;durP2;ratioP2
16516;SDS011;8371;52.272;9.746;2023-07-29T00:01:58;0.40;;;0.40;;
16516;SDS011;8371;52.272;9.746;2023-07-29T00:04:24;1.27;;;0.57;;
16516;SDS011;8371;52.272;9.746;2023-07-29T00:06:50;0.70;;;0.60;;
16516;SDS011;8371;52.272;9.746;2023-07-29T00:09:16;0.60;;;0.47;;
16516;SDS011;8371;52.272;9.746;2023-07-29T00:11:41;0.50;;;0.50;;
16516;SDS011;8371;52.272;9.746;2023-07-29T00:14:07;0.70;;;0.70;;
16516;SDS011;8371;52.272;9.746;2023-07-29T00:16:33;0.50;;;0.50;;
16516;SDS011;8371;52.272;9.746;2023-07-29T00:18:58;0.60;;;0.60;;
16516;SDS011;8371;52.272;9.746;2023-07-29T00:21:24;0.50;;;0.50;;
16516;SDS011;8371;52.272;9.746;2023-07-29T00:23:50;0.50;;;0.50;;
16516;SDS011;8371;52.272;9.746;2023-07-29T00:26:15;0.40;;;0.40;;
16516;SDS011;8371;52.272;9.746;2023-07-29T00:28:41;0.50;;;0.50;;
16516;SDS011;8371;52.272;9.746;2023-07-29T00:31:07;1.17;;;0.67;;
16516;SDS011;8371;52.272;9.746;2023-07-29T00:33:32;0.53;;;0.53;;
16516;SDS011;8371;52.272;9.746;2023-07-29T00:35:58;0.70;;;0.70;;
16516;SDS011;8371;52.272;9.746;2023-07-29T00:38:26;0.50;;;0.50;;
16516;SDS011;8371;52.272;9.746;2023-07-29T00:40:51;0.40;;;0.40;;
16516;SDS011;8371;52.272;9.746;2023-07-29T00:43:17;0.40;;;0.40;;
16516;SDS011;8371;52.272;9.746;2023-07-29T00:45:43;0.50;;;0.50;;
16516;SDS011;8371;52.272;9.746;2023-07-29T00:48:10;0.60;;;0.60;;
16516;SDS011;8371;52.272;9.746;2023-07-29T00:50:36;0.50;;;0.50;;
16516;SDS011;8371;52.272;9.746;2023-07-29T00:53:02;0.60;;;0.60;;
16516;SDS011;8371;52.272;9.746;2023-07-29T00:55:27;0.63;;;0.63;;
16516;SDS011;8371;52.272;9.746;2023-07-29T00:57:53;0.60;;;0.60;;
16516;SDS011;8371;52.272;9.746;2023-07-29T01:00:20;0.70;;;0.70;;
16516;SDS011;8371;52.272;9.746;2023-07-29T01:02:46;0.67;;;0.67;;
16516;SDS011;8371;52.272;9.746;2023-07-29T01:05:13;0.67;;;0.67;;
16516;SDS011;8371;52.272;9.746;2023-07-29T01:08:02;0.50;;;0.50;;
16516;SDS011;8371;52.272;9.746;2023-07-29T01:13:06;0.60;;;0.60;;
16516;SDS011;8371;52.272;9.746;2023-07-29T01:15:55;0.47;;;0.47;;
16516;SDS011;8371;52.272;9.746;2023-07-29T01:18:35;0.70;;;0.70;;
16516;SDS011;8371;52.272;9.746;2023-07-29T01:20:58;0.60;;;0.60;;
16516;SDS011;8371;52.272;9.746;2023-07-29T01:23:35;0.50;;;0.50;;
16516;SDS011;8371;52.272;9.746;2023-07-29T01:26:02;0.70;;;0.70;;
16516;SDS011;8371;52.272;9.746;2023-07-29T01:28:28;0.50;;;0.50;;
16516;SDS011;8371;52.272;9.746;2023-07-29T01:31:07;0.73;;;0.73;;
16516;SDS011;8371;52.272;9.746;2023-07-29T01:34:03;0.77;;;0.50;;
16516;SDS011;8371;52.272;9.746;2023-07-29T01:36:30;0.70;;;0.70;;
16516;SDS011;8371;52.272;9.746;2023-07-29T01:38:59;2.00;;;0.70;;
16516;SDS011;8371;52.272;9.746;2023-07-29T01:41:27;0.50;;;0.50;;
16516;SDS011;8371;52.272;9.746;2023-07-29T01:43:53;0.60;;;0.60;;
16516;SDS011;8371;52.272;9.746;2023-07-29T01:46:20;0.73;;;0.73;;
16516;SDS011;8371;52.272;9.746;2023-07-29T01:48:46;0.70;;;0.70;;
16516;SDS011;8371;52.272;9.746;2023-07-29T01:51:12;0.60;;;0.60;;
16516;SDS011;8371;52.272;9.746;2023-07-29T01:53:38;0.50;;;0.50;;
16516;SDS011;8371;52.272;9.746;2023-07-29T01:56:04;0.60;;;0.60;;
16516;SDS011;8371;52.272;9.746;2023-07-29T01:58:30;0.53;;;0.53;;
16516;SDS011;8371;52.272;9.746;2023-07-29T02:00:55;0.40;;;0.40;;
16516;SDS011;8371;52.272;9.746;2023-07-29T02:03:21;0.77;;;0.77;;
16516;SDS011;8371;52.272;9.746;2023-07-29T02:05:47;0.60;;;0.60;;
16516;SDS011;8371;52.272;9.746;2023-07-29T02:08:12;0.93;;;0.70;;
16516;SDS011;8371;52.272;9.746;2023-07-29T02:10:39;1.03;;;0.60;;
16516;SDS011;8371;52.272;9.746;2023-07-29T02:13:05;0.50;;;0.50;;
16516;SDS011;8371;52.272;9.746;2023-07-29T02:15:30;0.40;;;0.40;;
16516;SDS011;8371;52.272;9.746;2023-07-29T02:17:56;0.60;;;0.60;;
16516;SDS011;8371;52.272;9.746;2023-07-29T02:20:22;0.43;;;0.43;;
16516;SDS011;8371;52.272;9.746;2023-07-29T02:22:47;0.50;;;0.50;;
16516;SDS011;8371;52.272;9.746;2023-07-29T02:25:14;0.60;;;0.60;;
16516;SDS011;8371;52.272;9.746;2023-07-29T02:27:39;0.60;;;0.60;;
16516;SDS011;8371;52.272;9.746;2023-07-29T02:30:05;1.83;;;0.50;;
16516;SDS011;8371;52.272;9.746;2023-07-29T02:32:31;0.50;;;0.50;;
16516;SDS011;8371;52.272;9.746;2023-07-29T02:34:57;0.50;;;0.50;;
16516;SDS011;8371;52.272;9.746;2023-07-29T02:37:23;0.60;;;0.60;;
16516;SDS011;8371;52.272;9.746;2023-07-29T02:39:48;0.83;;;0.47;;
16516;SDS011;8371;52.272;9.746;2023-07-29T02:42:14;0.60;;;0.60;;
16516;SDS011;8371;52.272;9.746;2023-07-29T02:44:40;0.60;;;0.60;;
16516;SDS011;8371;52.272;9.746;2023-07-29T02:47:06;0.50;;;0.50;;
16516;SDS011;8371;52.272;9.746;2023-07-29T02:49:32;0.70;;;0.70;;
16516;SDS011;8371;52.272;9.746;2023-07-29T02:51:57;0.47;;;0.47;;
16516;SDS011;8371;52.272;9.746;2023-07-29T02:54:23;0.40;;;0.40;;
16516;SDS011;8371;52.272;9.746;2023-07-29T02:56:49;0.50;;;0.50;;
16516;SDS011;8371;52.272;9.746;2023-07-29T02:59:15;0.70;;;0.70;;
16516;SDS011;8371;52.272;9.746;2023-07-29T03:01:41;0.60;;;0.60;;
16516;SDS011;8371;52.272;9.746;2023-07-29T03:04:07;0.60;;;0.60;;
16516;SDS011;8371;52.272;9.746;2023-07-29T03:06:33;0.53;;;0.53;;
16516;SDS011;8371;52.272;9.746;2023-07-29T03:08:59;1.27;;;0.60;;
16516;SDS011;8371;52.272;9.746;2023-07-29T03:11:24;0.53;;;0.53;;
16516;SDS011;8371;52.272;9.746;2023-07-29T03:13:50;0.60;;;0.60;;
16516;SDS011;8371;52.272;9.746;2023-07-29T03:16:16;0.60;;;0.60;;
16516;SDS011;8371;52.272;9.746;2023-07-29T03:18:43;0.43;;;0.43;;
16516;SDS011;8371;52.272;9.746;2023-07-29T03:21:09;0.70;;;0.70;;
16516;SDS011;8371;52.272;9.746;2023-07-29T03:23:36;0.63;;;0.63;;
16516;SDS011;8371;52.272;9.746;2023-07-29T03:26:02;0.67;;;0.67;;
16516;SDS011;8371;52.272;9.746;2023-07-29T03:28:36;0.60;;;0.60;;
16516;SDS011;8371;52.272;9.746;2023-07-29T03:31:04;0.70;;;0.70;;
16516;SDS011;8371;52.272;9.746;2023-07-29T03:33:30;0.33;;;0.33;;
16516;SDS011;8371;52.272;9.746;2023-07-29T03:35:59;0.60;;;0.60;;
16516;SDS011;8371;52.272;9.746;2023-07-29T03:38:24;0.50;;;0.50;;
16516;SDS011;8371;52.272;9.746;2023-07-29T03:40:51;0.40;;;0.40;;
16516;SDS011;8371;52.272;9.746;2023-07-29T03:43:16;0.50;;;0.50;;
16516;SDS011;8371;52.272;9.746;2023-07-29T03:45:42;0.63;;;0.63;;
16516;SDS011;8371;52.272;9.746;2023-07-29T03:48:08;0.50;;;0.50;;
16516;SDS011;8371;52.272;9.746;2023-07-29T03:50:35;0.50;;;0.50;;
16516;SDS011;8371;52.272;9.746;2023-07-29T03:53:04;0.43;;;0.43;;
16516;SDS011;8371;52.272;9.746;2023-07-29T03:55:31;0.60;;;0.60;;
16516;SDS011;8371;52.272;9.746;2023-07-29T03:57:57;0.50;;;0.50;;
16516;SDS011;8371;52.272;9.746;2023-07-29T04:00:24;0.60;;;0.60;;
16516;SDS011;8371;52.272;9.746;2023-07-29T04:02:49;0.50;;;0.50;;
16516;SDS011;8371;52.272;9.746;2023-07-29T04:05:16;0.80;;;0.80;;
16516;SDS011;8371;52.272;9.746;2023-07-29T04:07:41;0.77;;;0.77;;
16516;SDS011;8371;52.272;9.746;2023-07-29T04:10:07;2.30;;;0.77;;
16516;SDS011;8371;52.272;9.746;2023-07-29T04:12:33;0.80;;;0.70;;
16516;SDS011;8371;52.272;9.746;2023-07-29T04:14:59;0.70;;;0.70;;
16516;SDS011;8371;52.272;9.746;2023-07-29T04:17:25;0.57;;;0.57;;
16516;SDS011;8371;52.272;9.746;2023-07-29T04:19:50;0.67;;;0.67;;
16516;SDS011;8371;52.272;9.746;2023-07-29T04:22:16;0.70;;;0.70;;
16516;SDS011;8371;52.272;9.746;2023-07-29T04:24:42;0.50;;;0.50;;
16516;SDS011;8371;52.272;9.746;2023-07-29T04:27:08;0.53;;;0.53;;
16516;SDS011;8371;52.272;9.746;2023-07-29T04:29:33;0.57;;;0.57;;
16516;SDS011;8371;52.272;9.746;2023-07-29T04:32:05;0.73;;;0.73;;
16516;SDS011;8371;52.272;9.746;2023-07-29T04:34:29;0.50;;;0.50;;
16516;SDS011;8371;52.272;9.746;2023-07-29T04:36:54;0.63;;;0.63;;
16516;SDS011;8371;52.272;9.746;2023-07-29T04:39:20;0.60;;;0.60;;
16516;SDS011;8371;52.272;9.746;2023-07-29T04:41:46;0.67;;;0.67;;
16516;SDS011;8371;52.272;9.746;2023-07-29T04:44:11;0.83;;;0.83;;
16516;SDS011;8371;52.272;9.746;2023-07-29T04:46:37;0.53;;;0.53;;
16516;SDS011;8371;52.272;9.746;2023-07-29T04:49:04;0.70;;;0.70;;
16516;SDS011;8371;52.272;9.746;2023-07-29T04:51:30;0.70;;;0.70;;
16516;SDS011;8371;52.272;9.746;2023-07-29T04:53:57;1.43;;;0.70;;
16516;SDS011;8371;52.272;9.746;2023-07-29T04:56:23;0.70;;;0.70;;
16516;SDS011;8371;52.272;9.746;2023-07-29T04:58:49;0.70;;;0.70;;
16516;SDS011;8371;52.272;9.746;2023-07-29T05:01:15;0.70;;;0.70;;
16516;SDS011;8371;52.272;9.746;2023-07-29T05:03:40;0.50;;;0.50;;
16516;SDS011;8371;52.272;9.746;2023-07-29T05:06:06;1.53;;;0.50;;
16516;SDS011;8371;52.272;9.746;2023-07-29T05:08:32;0.60;;;0.60;;
16516;SDS011;8371;52.272;9.746;2023-07-29T05:10:57;0.60;;;0.60;;
16516;SDS011;8371;52.272;9.746;2023-07-29T05:13:23;0.60;;;0.60;;
16516;SDS011;8371;52.272;9.746;2023-07-29T05:15:49;0.50;;;0.50;;
16516;SDS011;8371;52.272;9.746;2023-07-29T05:18:15;0.70;;;0.70;;
16516;SDS011;8371;52.272;9.746;2023-07-29T05:20:42;0.50;;;0.50;;
16516;SDS011;8371;52.272;9.746;2023-07-29T05:23:08;1.07;;;0.57;;
16516;SDS011;8371;52.272;9.746;2023-07-29T05:25:33;0.50;;;0.50;;
16516;SDS011;8371;52.272;9.746;2023-07-29T05:28:02;0.80;;;0.80;;
16516;SDS011;8371;52.272;9.746;2023-07-29T05:30:29;0.47;;;0.47;;
16516;SDS011;8371;52.272;9.746;2023-07-29T05:32:59;0.60;;;0.60;;
16516;SDS011;8371;52.272;9.746;2023-07-29T05:35:26;0.60;;;0.60;;
16516;SDS011;8371;52.272;9.746;2023-07-29T05:37:51;0.50;;;0.50;;
16516;SDS011;8371;52.272;9.746;2023-07-29T05:40:17;0.60;;;0.60;;
16516;SDS011;8371;52.272;9.746;2023-07-29T05:42:44;0.50;;;0.50;;
16516;SDS011;8371;52.272;9.746;2023-07-29T05:45:10;1.80;;;0.70;;
16516;SDS011;8371;52.272;9.746;2023-07-29T05:47:36;0.50;;;0.50;;
16516;SDS011;8371;52.272;9.746;2023-07-29T05:50:03;0.50;;;0.50;;
16516;SDS011;8371;52.272;9.746;2023-07-29T05:52:30;0.60;;;0.60;;
16516;SDS011;8371;52.272;9.746;2023-07-29T05:54:56;0.70;;;0.70;;
16516;SDS011;8371;52.272;9.746;2023-07-29T05:57:22;0.67;;;0.67;;
16516;SDS011;8371;52.272;9.746;2023-07-29T05:59:47;0.67;;;0.67;;
16516;SDS011;8371;52.272;9.746;2023-07-29T06:02:13;3.37;;;0.80;;
16516;SDS011;8371;52.272;9.746;2023-07-29T06:04:39;0.70;;;0.70;;
16516;SDS011;8371;52.272;9.746;2023-07-29T06:07:05;0.77;;;0.77;;
16516;SDS011;8371;52.272;9.746;2023-07-29T06:09:31;0.67;;;0.67;;
16516;SDS011;8371;52.272;9.746;2023-07-29T06:11:57;1.57;;;0.80;;
16516;SDS011;8371;52.272;9.746;2023-07-29T06:14:23;0.60;;;0.60;;
16516;SDS011;8371;52.272;9.746;2023-07-29T06:16:48;0.60;;;0.60;;
16516;SDS011;8371;52.272;9.746;2023-07-29T06:19:14;0.60;;;0.60;;
16516;SDS011;8371;52.272;9.746;2023-07-29T06:21:40;0.50;;;0.50;;
16516;SDS011;8371;52.272;9.746;2023-07-29T06:24:05;0.80;;;0.80;;
16516;SDS011;8371;52.272;9.746;2023-07-29T06:26:31;0.60;;;0.60;;
16516;SDS011;8371;52.272;9.746;2023-07-29T06:28:57;0.70;;;0.70;;
16516;SDS011;8371;52.272;9.746;2023-07-29T06:31:22;4.53;;;0.63;;
16516;SDS011;8371;52.272;9.746;2023-07-29T06:33:52;0.70;;;0.70;;
16516;SDS011;8371;52.272;9.746;2023-07-29T06:36:20;0.53;;;0.53;;
16516;SDS011;8371;52.272;9.746;2023-07-29T06:38:45;0.70;;;0.70;;
16516;SDS011;8371;52.272;9.746;2023-07-29T06:41:11;1.40;;;0.60;;
16516;SDS011;8371;52.272;9.746;2023-07-29T06:43:37;0.70;;;0.70;;
16516;SDS011;8371;52.272;9.746;2023-07-29T06:46:03;0.63;;;0.63;;
16516;SDS011;8371;52.272;9.746;2023-07-29T06:48:28;0.80;;;0.80;;
16516;SDS011;8371;52.272;9.746;2023-07-29T06:50:54;0.90;;;0.90;;
16516;SDS011;8371;52.272;9.746;2023-07-29T06:53:20;0.77;;;0.77;;
16516;SDS011;8371;52.272;9.746;2023-07-29T06:55:46;0.80;;;0.80;;
16516;SDS011;8371;52.272;9.746;2023-07-29T06:58:12;1.40;;;0.80;;
16516;SDS011;8371;52.272;9.746;2023-07-29T07:00:38;1.70;;;0.70;;
16516;SDS011;8371;52.272;9.746;2023-07-29T07:03:03;0.70;;;0.70;;
16516;SDS011;8371;52.272;9.746;2023-07-29T07:05:29;0.70;;;0.70;;
16516;SDS011;8371;52.272;9.746;2023-07-29T07:07:55;0.80;;;0.80;;
16516;SDS011;8371;52.272;9.746;2023-07-29T07:10:20;0.50;;;0.50;;
16516;SDS011;8371;52.272;9.746;2023-07-29T07:12:46;1.30;;;0.70;;
16516;SDS011;8371;52.272;9.746;2023-07-29T07:15:12;1.60;;;0.70;;
16516;SDS011;8371;52.272;9.746;2023-07-29T07:17:37;0.70;;;0.70;;
16516;SDS011;8371;52.272;9.746;2023-07-29T07:20:03;0.60;;;0.60;;
16516;SDS011;8371;52.272;9.746;2023-07-29T07:22:30;0.87;;;0.57;;
16516;SDS011;8371;52.272;9.746;2023-07-29T07:24:56;0.50;;;0.50;;
16516;SDS011;8371;52.272;9.746;2023-07-29T07:27:21;0.60;;;0.60;;
16516;SDS011;8371;52.272;9.746;2023-07-29T07:29:47;1.17;;;0.67;;
16516;SDS011;8371;52.272;9.746;2023-07-29T07:32:13;0.43;;;0.43;;
16516;SDS011;8371;52.272;9.746;2023-07-29T07:34:38;0.50;;;0.50;;
16516;SDS011;8371;52.272;9.746;2023-07-29T07:37:04;0.40;;;0.40;;
16516;SDS011;8371;52.272;9.746;2023-07-29T07:39:31;0.40;;;0.40;;
16516;SDS011;8371;52.272;9.746;2023-07-29T07:41:57;0.50;;;0.50;;
16516;SDS011;8371;52.272;9.746;2023-07-29T07:44:22;0.30;;;0.30;;
16516;SDS011;8371;52.272;9.746;2023-07-29T07:46:50;0.53;;;0.40;;
16516;SDS011;8371;52.272;9.746;2023-07-29T07:49:16;0.40;;;0.40;;
16516;SDS011;8371;52.272;9.746;2023-07-29T07:51:43;0.50;;;0.50;;
16516;SDS011;8371;52.272;9.746;2023-07-29T07:54:09;0.43;;;0.43;;
16516;SDS011;8371;52.272;9.746;2023-07-29T07:56:34;0.40;;;0.40;;
16516;SDS011;8371;52.272;9.746;2023-07-29T07:59:00;0.37;;;0.37;;
16516;SDS011;8371;52.272;9.746;2023-07-29T08:01:26;0.30;;;0.30;;
16516;SDS011;8371;52.272;9.746;2023-07-29T08:03:51;0.43;;;0.43;;
16516;SDS011;8371;52.272;9.746;2023-07-29T08:06:17;0.40;;;0.40;;
16516;SDS011;8371;52.272;9.746;2023-07-29T08:08:43;0.50;;;0.50;;
16516;SDS011;8371;52.272;9.746;2023-07-29T08:11:08;0.43;;;0.43;;
16516;SDS011;8371;52.272;9.746;2023-07-29T08:13:34;0.40;;;0.40;;
16516;SDS011;8371;52.272;9.746;2023-07-29T08:16:00;0.50;;;0.50;;
16516;SDS011;8371;52.272;9.746;2023-07-29T08:18:25;1.20;;;0.30;;
16516;SDS011;8371;52.272;9.746;2023-07-29T08:20:52;0.40;;;0.40;;
16516;SDS011;8371;52.272;9.746;2023-07-29T08:23:21;0.40;;;0.40;;
16516;SDS011;8371;52.272;9.746;2023-07-29T08:25:51;0.40;;;0.40;;
16516;SDS011;8371;52.272;9.746;2023-07-29T08:28:18;0.40;;;0.40;;
16516;SDS011;8371;52.272;9.746;2023-07-29T08:30:44;0.30;;;0.30;;
16516;SDS011;8371;52.272;9.746;2023-07-29T08:33:10;0.60;;;0.60;;
16516;SDS011;8371;52.272;9.746;2023-07-29T08:35:36;0.60;;;0.60;;
16516;SDS011;8371;52.272;9.746;2023-07-29T08:38:02;0.63;;;0.63;;
16516;SDS011;8371;52.272;9.746;2023-07-29T08:40:29;0.90;;;0.80;;
16516;SDS011;8371;52.272;9.746;2023-07-29T08:42:55;0.53;;;0.53;;
16516;SDS011;8371;52.272;9.746;2023-07-29T08:45:23;0.70;;;0.70;;
16516;SDS011;8371;52.272;9.746;2023-07-29T08:47:50;1.73;;;0.70;;
16516;SDS011;8371;52.272;9.746;2023-07-29T08:50:20;0.50;;;0.50;;
16516;SDS011;8371;52.272;9.746;2023-07-29T08:52:46;0.50;;;0.50;;
16516;SDS011;8371;52.272;9.746;2023-07-29T08:55:14;0.60;;;0.60;;
16516;SDS011;8371;52.272;9.746;2023-07-29T08:57:40;0.87;;;0.87;;
16516;SDS011;8371;52.272;9.746;2023-07-29T09:00:06;0.60;;;0.60;;
16516;SDS011;8371;52.272;9.746;2023-07-29T09:02:33;0.80;;;0.80;;
16516;SDS011;8371;52.272;9.746;2023-07-29T09:04:58;0.80;;;0.80;;
16516;SDS011;8371;52.272;9.746;2023-07-29T09:07:24;0.93;;;0.93;;
16516;SDS011;8371;52.272;9.746;2023-07-29T09:09:51;0.70;;;0.70;;
16516;SDS011;8371;52.272;9.746;2023-07-29T09:12:16;0.63;;;0.63;;
16516;SDS011;8371;52.272;9.746;2023-07-29T09:14:42;0.87;;;0.87;;
16516;SDS011;8371;52.272;9.746;2023-07-29T09:17:08;0.63;;;0.63;;
16516;SDS011;8371;52.272;9.746;2023-07-29T09:19:35;1.20;;;0.90;;
16516;SDS011;8371;52.272;9.746;2023-07-29T09:22:01;0.77;;;0.77;;
16516;SDS011;8371;52.272;9.746;2023-07-29T09:24:26;0.90;;;0.90;;
16516;SDS011;8371;52.272;9.746;2023-07-29T09:26:55;1.23;;;1.00;;
16516;SDS011;8371;52.272;9.746;2023-07-29T09:29:27;1.20;;;1.20;;
16516;SDS011;8371;52.272;9.746;2023-07-29T09:31:53;0.77;;;0.77;;
16516;SDS011;8371;52.272;9.746;2023-07-29T09:34:19;1.10;;;1.10;;
16516;SDS011;8371;52.272;9.746;2023-07-29T09:36:44;1.10;;;1.10;;
16516;SDS011;8371;52.272;9.746;2023-07-29T09:39:11;1.30;;;1.30;;
16516;SDS011;8371;52.272;9.746;2023-07-29T09:41:40;1.87;;;1.77;;
16516;SDS011;8371;52.272;9.746;2023-07-29T09:44:06;2.00;;;2.00;;
16516;SDS011;8371;52.272;9.746;2023-07-29T09:46:34;1.90;;;1.80;;
16516;SDS011;8371;52.272;9.746;2023-07-29T09:49:04;1.90;;;1.90;;
16516;SDS011;8371;52.272;9.746;2023-07-29T09:51:30;2.27;;;2.27;;
16516;SDS011;8371;52.272;9.746;2023-07-29T09:53:55;2.60;;;2.50;;
16516;SDS011;8371;52.272;9.746;2023-07-29T09:56:24;3.03;;;2.83;;
16516;SDS011;8371;52.272;9.746;2023-07-29T09:58:52;3.13;;;3.03;;
16516;SDS011;8371;52.272;9.746;2023-07-29T10:01:18;3.67;;;3.57;;
16516;SDS011;8371;52.272;9.746;2023-07-29T10:03:44;3.10;;;3.00;;
16516;SDS011;8371;52.272;9.746;2023-07-29T10:06:10;3.50;;;3.40;;
16516;SDS011;8371;52.272;9.746;2023-07-29T10:08:36;3.17;;;3.07;;
16516;SDS011;8371;52.272;9.746;2023-07-29T10:11:06;2.97;;;2.90;;
16516;SDS011;8371;52.272;9.746;2023-07-29T10:13:33;3.47;;;3.37;;
16516;SDS011;8371;52.272;9.746;2023-07-29T10:15:59;3.10;;;3.00;;
16516;SDS011;8371;52.272;9.746;2023-07-29T10:18:27;2.80;;;2.70;;
16516;SDS011;8371;52.272;9.746;2023-07-29T10:20:53;2.70;;;2.60;;
16516;SDS011;8371;52.272;9.746;2023-07-29T10:23:21;2.40;;;2.40;;
16516;SDS011;8371;52.272;9.746;2023-07-29T10:25:50;2.70;;;2.63;;
16516;SDS011;8371;52.272;9.746;2023-07-29T10:28:19;2.17;;;2.07;;
16516;SDS011;8371;52.272;9.746;2023-07-29T10:30:47;2.40;;;2.33;;
16516;SDS011;8371;52.272;9.746;2023-07-29T10:33:13;2.07;;;2.07;;
16516;SDS011;8371;52.272;9.746;2023-07-29T10:35:39;2.20;;;2.10;;
16516;SDS011;8371;52.272;9.746;2023-07-29T10:38:05;1.97;;;1.97;;
16516;SDS011;8371;52.272;9.746;2023-07-29T10:40:50;1.87;;;1.87;;
16516;SDS011;8371;52.272;9.746;2023-07-29T10:43:23;1.70;;;1.70;;
16516;SDS011;8371;52.272;9.746;2023-07-29T10:45:55;1.80;;;1.80;;
16516;SDS011;8371;52.272;9.746;2023-07-29T10:54:00;1.90;;;1.90;;
16516;SDS011;8371;52.272;9.746;2023-07-29T10:56:27;1.60;;;1.60;;
16516;SDS011;8371;52.272;9.746;2023-07-29T11:01:56;1.80;;;1.80;;
16516;SDS011;8371;52.272;9.746;2023-07-29T11:04:30;1.80;;;1.80;;
16516;SDS011;8371;52.272;9.746;2023-07-29T11:17:42;1.70;;;1.70;;
16516;SDS011;8371;52.272;9.746;2023-07-29T11:20:11;1.40;;;1.40;;
16516;SDS011;8371;52.272;9.746;2023-07-29T11:22:37;1.40;;;1.40;;
16516;SDS011;8371;52.272;9.746;2023-07-29T11:25:04;1.43;;;1.30;;
16516;SDS011;8371;52.272;9.746;2023-07-29T11:27:32;1.43;;;1.43;;
16516;SDS011;8371;52.272;9.746;2023-07-29T11:29:58;1.30;;;1.30;;
16516;SDS011;8371;52.272;9.746;2023-07-29T11:32:25;0.97;;;0.97;;
16516;SDS011;8371;52.272;9.746;2023-07-29T11:34:51;1.33;;;1.23;;
16516;SDS011;8371;52.272;9.746;2023-07-29T11:37:17;1.20;;;1.20;;
16516;SDS011;8371;52.272;9.746;2023-07-29T11:39:46;0.90;;;0.90;;
16516;SDS011;8371;52.272;9.746;2023-07-29T11:42:15;0.70;;;0.70;;
16516;SDS011;8371;52.272;9.746;2023-07-29T11:44:41;1.00;;;1.00;;
16516;SDS011;8371;52.272;9.746;2023-07-29T11:47:07;0.77;;;0.77;;
16516;SDS011;8371;52.272;9.746;2023-07-29T11:49:33;0.87;;;0.87;;
16516;SDS011;8371;52.272;9.746;2023-07-29T11:52:00;0.70;;;0.70;;
16516;SDS011;8371;52.272;9.746;2023-07-29T11:54:27;0.70;;;0.70;;
16516;SDS011;8371;52.272;9.746;2023-07-29T11:56:53;0.70;;;0.70;;
16516;SDS011;8371;52.272;9.746;2023-07-29T11:59:19;0.60;;;0.60;;
16516;SDS011;8371;52.272;9.746;2023-07-29T12:01:46;0.60;;;0.60;;
16516;SDS011;8371;52.272;9.746;2023-07-29T12:04:13;0.50;;;0.50;;
16516;SDS011;8371;52.272;9.746;2023-07-29T12:06:39;0.60;;;0.60;;
16516;SDS011;8371;52.272;9.746;2023-07-29T12:09:06;0.60;;;0.60;;
16516;SDS011;8371;52.272;9.746;2023-07-29T12:11:33;0.33;;;0.33;;
16516;SDS011;8371;52.272;9.746;2023-07-29T12:14:01;0.50;;;0.50;;
16516;SDS011;8371;52.272;9.746;2023-07-29T12:16:27;0.60;;;0.60;;
16516;SDS011;8371;52.272;9.746;2023-07-29T12:18:56;0.60;;;0.60;;
16516;SDS011;8371;52.272;9.746;2023-07-29T12:21:23;0.47;;;0.47;;
16516;SDS011;8371;52.272;9.746;2023-07-29T12:23:49;0.40;;;0.40;;
16516;SDS011;8371;52.272;9.746;2023-07-29T12:26:16;0.40;;;0.40;;
16516;SDS011;8371;52.272;9.746;2023-07-29T12:28:45;0.60;;;0.60;;
16516;SDS011;8371;52.272;9.746;2023-07-29T12:31:11;0.70;;;0.70;;
16516;SDS011;8371;52.272;9.746;2023-07-29T12:33:37;0.50;;;0.50;;
16516;SDS011;8371;52.272;9.746;2023-07-29T12:36:07;0.60;;;0.60;;
16516;SDS011;8371;52.272;9.746;2023-07-29T12:38:33;1.23;;;0.77;;
16516;SDS011;8371;52.272;9.746;2023-07-29T12:40:59;0.60;;;0.60;;
16516;SDS011;8371;52.272;9.746;2023-07-29T12:43:25;0.60;;;0.60;;
16516;SDS011;8371;52.272;9.746;2023-07-29T12:45:51;0.63;;;0.63;;
16516;SDS011;8371;52.272;9.746;2023-07-29T12:48:17;1.80;;;0.70;;
16516;SDS011;8371;52.272;9.746;2023-07-29T12:50:43;0.60;;;0.60;;
16516;SDS011;8371;52.272;9.746;2023-07-29T12:53:09;0.70;;;0.70;;
16516;SDS011;8371;52.272;9.746;2023-07-29T12:55:38;0.60;;;0.60;;
16516;SDS011;8371;52.272;9.746;2023-07-29T12:58:04;0.60;;;0.60;;
16516;SDS011;8371;52.272;9.746;2023-07-29T13:00:30;0.37;;;0.37;;
16516;SDS011;8371;52.272;9.746;2023-07-29T13:02:55;0.50;;;0.50;;
16516;SDS011;8371;52.272;9.746;2023-07-29T13:05:21;0.53;;;0.53;;
16516;SDS011;8371;52.272;9.746;2023-07-29T13:07:47;0.30;;;0.30;;
16516;SDS011;8371;52.272;9.746;2023-07-29T13:10:13;0.43;;;0.43;;
16516;SDS011;8371;52.272;9.746;2023-07-29T13:12:39;0.50;;;0.50;;
16516;SDS011;8371;52.272;9.746;2023-07-29T13:15:05;0.50;;;0.50;;
16516;SDS011;8371;52.272;9.746;2023-07-29T13:17:32;1.30;;;0.60;;
16516;SDS011;8371;52.272;9.746;2023-07-29T13:19:59;0.57;;;0.57;;
16516;SDS011;8371;52.272;9.746;2023-07-29T13:22:24;0.60;;;0.60;;
16516;SDS011;8371;52.272;9.746;2023-07-29T13:24:50;0.80;;;0.80;;
16516;SDS011;8371;52.272;9.746;2023-07-29T13:27:16;0.40;;;0.40;;
16516;SDS011;8371;52.272;9.746;2023-07-29T13:29:42;0.43;;;0.43;;
16516;SDS011;8371;52.272;9.746;2023-07-29T13:32:08;0.57;;;0.57;;
16516;SDS011;8371;52.272;9.746;2023-07-29T13:34:34;0.40;;;0.40;;
16516;SDS011;8371;52.272;9.746;2023-07-29T13:37:00;0.30;;;0.30;;
16516;SDS011;8371;52.272;9.746;2023-07-29T13:39:25;0.40;;;0.40;;
16516;SDS011;8371;52.272;9.746;2023-07-29T13:41:52;0.40;;;0.40;;
16516;SDS011;8371;52.272;9.746;2023-07-29T13:44:19;0.43;;;0.43;;
16516;SDS011;8371;52.272;9.746;2023-07-29T13:46:44;0.50;;;0.50;;
16516;SDS011;8371;52.272;9.746;2023-07-29T13:49:10;0.60;;;0.60;;
16516;SDS011;8371;52.272;9.746;2023-07-29T13:51:36;0.40;;;0.40;;
16516;SDS011;8371;52.272;9.746;2023-07-29T13:54:02;0.40;;;0.40;;
16516;SDS011;8371;52.272;9.746;2023-07-29T13:56:28;0.40;;;0.40;;
16516;SDS011;8371;52.272;9.746;2023-07-29T13:58:53;0.40;;;0.40;;
16516;SDS011;8371;52.272;9.746;2023-07-29T14:01:19;0.40;;;0.40;;
16516;SDS011;8371;52.272;9.746;2023-07-29T14:03:45;0.50;;;0.50;;
16516;SDS011;8371;52.272;9.746;2023-07-29T14:06:10;0.63;;;0.63;;
16516;SDS011;8371;52.272;9.746;2023-07-29T14:08:36;0.33;;;0.33;;
16516;SDS011;8371;52.272;9.746;2023-07-29T14:11:02;0.30;;;0.30;;
16516;SDS011;8371;52.272;9.746;2023-07-29T14:13:27;3.02;;;0.50;;
16516;SDS011;8371;52.272;9.746;2023-07-29T14:15:53;0.53;;;0.53;;
16516;SDS011;8371;52.272;9.746;2023-07-29T14:18:19;0.40;;;0.40;;
16516;SDS011;8371;52.272;9.746;2023-07-29T14:20:45;0.40;;;0.40;;
16516;SDS011;8371;52.272;9.746;2023-07-29T14:23:11;0.40;;;0.40;;
16516;SDS011;8371;52.272;9.746;2023-07-29T14:25:36;0.70;;;0.70;;
16516;SDS011;8371;52.272;9.746;2023-07-29T14:28:02;0.77;;;0.77;;
16516;SDS011;8371;52.272;9.746;2023-07-29T14:30:28;0.77;;;0.50;;
16516;SDS011;8371;52.272;9.746;2023-07-29T14:32:54;0.63;;;0.63;;
16516;SDS011;8371;52.272;9.746;2023-07-29T14:35:19;0.47;;;0.47;;
16516;SDS011;8371;52.272;9.746;2023-07-29T14:37:45;0.40;;;0.40;;
16516;SDS011;8371;52.272;9.746;2023-07-29T14:40:11;0.60;;;0.60;;
16516;SDS011;8371;52.272;9.746;2023-07-29T14:42:36;0.60;;;0.60;;
16516;SDS011;8371;52.272;9.746;2023-07-29T14:45:02;0.80;;;0.80;;
16516;SDS011;8371;52.272;9.746;2023-07-29T14:47:28;0.50;;;0.50;;
16516;SDS011;8371;52.272;9.746;2023-07-29T14:49:56;0.50;;;0.50;;
16516;SDS011;8371;52.272;9.746;2023-07-29T14:52:21;0.50;;;0.50;;
16516;SDS011;8371;52.272;9.746;2023-07-29T14:54:47;0.43;;;0.43;;
16516;SDS011;8371;52.272;9.746;2023-07-29T14:57:13;0.70;;;0.70;;
16516;SDS011;8371;52.272;9.746;2023-07-29T14:59:38;0.50;;;0.50;;
16516;SDS011;8371;52.272;9.746;2023-07-29T15:02:04;0.60;;;0.60;;
16516;SDS011;8371;52.272;9.746;2023-07-29T15:04:31;0.57;;;0.57;;
16516;SDS011;8371;52.272;9.746;2023-07-29T15:06:56;0.67;;;0.67;;
16516;SDS011;8371;52.272;9.746;2023-07-29T15:09:23;0.50;;;0.50;;
16516;SDS011;8371;52.272;9.746;2023-07-29T15:11:49;0.50;;;0.50;;
16516;SDS011;8371;52.272;9.746;2023-07-29T15:14:14;0.50;;;0.50;;
16516;SDS011;8371;52.272;9.746;2023-07-29T15:16:40;0.53;;;0.53;;
16516;SDS011;8371;52.272;9.746;2023-07-29T15:19:06;0.50;;;0.50;;